createdAt,value
2023-08-29T00:01:13.792Z,14.43
2023-08-29T00:06:06.616Z,14.40
2023-08-29T00:10:58.731Z,14.38
2023-08-29T00:15:50.970Z,14.39
2023-08-29T00:20:42.606Z,14.35
2023-08-29T00:25:34.194Z,14.34
2023-08-29T00:30:25.834Z,14.34
2023-08-29T00:35:17.444Z,14.26
2023-08-29T00:40:10.611Z,14.23
2023-08-29T00:45:02.308Z,14.22
2023-08-29T00:49:54.217Z,14.16
2023-08-29T00:54:45.954Z,14.14
2023-08-29T00:59:37.830Z,14.17
2023-08-29T01:04:29.433Z,14.15
2023-08-29T01:09:21.067Z,14.13
2023-08-29T01:14:37.406Z,14.15
2023-08-29T01:19:29.483Z,14.08
2023-08-29T01:24:40.178Z,14.06
2023-08-29T01:29:34.389Z,14.07
2023-08-29T01:34:27.202Z,14.05
2023-08-29T01:39:18.877Z,14.07
2023-08-29T01:44:10.644Z,14.04
2023-08-29T01:49:03.711Z,14.02
2023-08-29T01:53:55.914Z,14.02
2023-08-29T01:58:49.573Z,14.03
2023-08-29T02:03:41.289Z,14.00
2023-08-29T02:08:33.331Z,14.03
2023-08-29T02:13:24.909Z,14.02
2023-08-29T02:18:16.568Z,14.01
2023-08-29T02:23:08.157Z,13.95
2023-08-29T02:27:59.854Z,13.93
2023-08-29T02:32:51.552Z,13.91
2023-08-29T02:37:43.172Z,13.88
2023-08-29T02:42:34.807Z,13.88
2023-08-29T02:47:26.571Z,13.87
2023-08-29T02:52:18.172Z,13.87
2023-08-29T02:57:09.834Z,13.85
2023-08-29T03:02:04.113Z,13.85
2023-08-29T03:06:55.717Z,13.82
2023-08-29T03:11:47.320Z,13.77
2023-08-29T03:16:39.019Z,13.77
2023-08-29T03:21:30.687Z,13.79
2023-08-29T03:26:22.412Z,13.80
2023-08-29T03:31:16.635Z,13.79
2023-08-29T03:36:09.645Z,13.77
2023-08-29T03:41:01.335Z,13.77
2023-08-29T03:46:03.962Z,13.75
2023-08-29T03:50:55.759Z,13.75
2023-08-29T03:55:47.497Z,13.78
2023-08-29T04:00:39.170Z,13.79
2023-08-29T04:05:30.936Z,13.81
2023-08-29T04:10:22.690Z,13.83
2023-08-29T04:15:14.689Z,13.80
2023-08-29T04:20:10.158Z,13.83
2023-08-29T04:25:02.221Z,13.80
2023-08-29T04:29:53.826Z,13.80
2023-08-29T04:34:45.761Z,13.81
2023-08-29T04:39:39.870Z,13.81
2023-08-29T04:44:31.798Z,13.80
2023-08-29T04:49:23.501Z,13.78
2023-08-29T04:54:15.110Z,13.79
2023-08-29T04:59:07.040Z,13.77
2023-08-29T05:03:58.671Z,13.79
2023-08-29T05:08:50.298Z,13.75
2023-08-29T05:13:41.972Z,13.75
2023-08-29T05:18:33.602Z,13.77
2023-08-29T05:23:25.346Z,13.75
2023-08-29T05:28:16.934Z,13.76
2023-08-29T05:33:08.707Z,13.75
2023-08-29T05:38:00.613Z,13.75
2023-08-29T05:42:52.188Z,13.71
2023-08-29T05:47:43.737Z,13.73
2023-08-29T05:52:35.856Z,13.76
2023-08-29T05:57:27.473Z,13.78
2023-08-29T06:02:19.057Z,13.78
2023-08-29T06:07:10.667Z,13.80
2023-08-29T06:12:02.278Z,13.84
2023-08-29T06:16:53.926Z,13.86
2023-08-29T06:21:45.531Z,13.88
2023-08-29T06:26:38.482Z,13.90
2023-08-29T06:31:30.184Z,13.93
2023-08-29T06:36:21.765Z,13.97
2023-08-29T06:41:13.358Z,14.02
2023-08-29T06:46:05.033Z,14.07
2023-08-29T06:50:56.662Z,14.14
2023-08-29T06:55:48.297Z,14.24
2023-08-29T07:00:39.972Z,14.31
2023-08-29T07:05:31.605Z,14.43
2023-08-29T07:10:23.429Z,14.51
2023-08-29T07:15:15.261Z,14.60
2023-08-29T07:20:10.205Z,14.71
2023-08-29T07:25:01.986Z,14.81
2023-08-29T07:29:53.573Z,14.91
2023-08-29T07:34:45.207Z,14.98
2023-08-29T07:39:37.035Z,15.06
2023-08-29T07:44:28.666Z,15.16
2023-08-29T07:49:21.579Z,15.35
2023-08-29T07:54:13.314Z,15.51
2023-08-29T07:59:04.950Z,15.65
2023-08-29T08:03:57.052Z,15.76
2023-08-29T08:08:48.687Z,15.82
2023-08-29T08:13:40.299Z,15.83
2023-08-29T08:18:31.885Z,15.79
2023-08-29T08:23:23.509Z,15.82
2023-08-29T08:28:15.220Z,15.82
2023-08-29T08:33:07.269Z,15.87
2023-08-29T08:37:58.914Z,15.97
2023-08-29T08:42:50.568Z,16.08
2023-08-29T08:47:42.488Z,16.16
2023-08-29T08:52:37.579Z,16.22
2023-08-29T08:57:29.285Z,16.16
2023-08-29T09:02:21.875Z,16.15
2023-08-29T09:07:13.440Z,16.11
2023-08-29T09:12:05.358Z,16.13
2023-08-29T09:16:58.261Z,16.11
2023-08-29T09:21:50.998Z,16.21
2023-08-29T09:26:42.579Z,16.21
2023-08-29T09:31:34.266Z,16.16
2023-08-29T09:36:26.577Z,16.09
2023-08-29T09:41:18.740Z,16.13
2023-08-29T09:46:10.517Z,16.16
2023-08-29T09:51:06.095Z,16.19
2023-08-29T09:56:06.905Z,16.19
2023-08-29T10:01:01.202Z,16.17
2023-08-29T10:05:56.949Z,16.13
2023-08-29T10:10:49.288Z,16.13
2023-08-29T10:15:43.378Z,16.20
2023-08-29T10:20:36.455Z,16.23
2023-08-29T10:25:29.477Z,16.19
2023-08-29T10:30:24.654Z,16.16
2023-08-29T10:35:20.651Z,16.07
2023-08-29T10:40:13.207Z,15.98
2023-08-29T10:45:05.372Z,15.95
2023-08-29T10:50:03.365Z,15.99
2023-08-29T10:55:10.619Z,15.92
2023-08-29T11:00:02.286Z,15.82
2023-08-29T11:05:06.046Z,15.69
2023-08-29T11:10:23.762Z,15.63
2023-08-29T11:15:15.344Z,15.68
2023-08-29T11:20:09.722Z,15.72
2023-08-29T11:25:01.373Z,15.88
2023-08-29T11:30:05.088Z,16.06
2023-08-29T11:35:05.448Z,16.18
2023-08-29T11:39:59.591Z,16.20
2023-08-29T11:45:45.956Z,16.15
2023-08-29T11:50:06.465Z,16.20
2023-08-29T11:54:58.102Z,16.16
2023-08-29T11:59:53.111Z,16.08
2023-08-29T12:04:46.445Z,15.99
2023-08-29T12:09:39.323Z,15.92
2023-08-29T12:14:31.001Z,15.90
2023-08-29T12:19:22.613Z,15.84
2023-08-29T12:24:14.963Z,15.84
2023-08-29T12:29:06.577Z,15.71
2023-08-29T12:33:58.257Z,15.76
2023-08-29T12:38:49.914Z,15.87
2023-08-29T12:43:41.747Z,15.94
2023-08-29T12:48:33.386Z,16.02
2023-08-29T12:53:25.020Z,16.14
2023-08-29T12:58:16.624Z,16.33
2023-08-29T13:03:08.514Z,16.63
2023-08-29T13:08:00.252Z,16.92
2023-08-29T13:12:53.145Z,17.16
2023-08-29T13:17:45.291Z,17.35
2023-08-29T13:22:40.345Z,17.50
2023-08-29T13:27:31.973Z,17.60
2023-08-29T13:32:23.639Z,17.77
2023-08-29T13:37:15.323Z,17.85
2023-08-29T13:42:06.922Z,17.88
2023-08-29T13:46:59.375Z,17.97
2023-08-29T13:51:51.109Z,17.96
2023-08-29T13:56:45.101Z,17.95
2023-08-29T14:01:36.730Z,17.98
2023-08-29T14:06:28.686Z,18.04
2023-08-29T14:11:20.683Z,18.18
2023-08-29T14:16:12.301Z,18.10
2023-08-29T14:21:04.215Z,18.03
2023-08-29T14:25:55.907Z,17.94
2023-08-29T14:30:49.310Z,17.79
2023-08-29T14:35:41.821Z,17.80
2023-08-29T14:40:33.668Z,17.95
2023-08-29T14:45:25.463Z,18.03
2023-08-29T14:50:17.144Z,17.99
2023-08-29T14:55:09.677Z,18.12
2023-08-29T15:00:01.817Z,18.21
2023-08-29T15:04:53.677Z,18.15
2023-08-29T15:09:45.633Z,18.02
2023-08-29T15:14:37.456Z,17.77
2023-08-29T15:19:29.042Z,17.65
2023-08-29T15:24:20.696Z,17.64
2023-08-29T15:29:13.721Z,17.67
2023-08-29T15:34:05.575Z,17.67
2023-08-29T15:38:57.281Z,17.57
2023-08-29T15:43:48.985Z,17.56
2023-08-29T15:48:40.950Z,17.66
2023-08-29T15:53:35.307Z,17.78
2023-08-29T15:58:26.934Z,17.85
2023-08-29T16:03:18.733Z,17.86
2023-08-29T16:08:10.651Z,17.79
2023-08-29T16:13:02.648Z,17.66
2023-08-29T16:17:54.421Z,17.53
2023-08-29T16:22:47.634Z,17.47
2023-08-29T16:27:39.395Z,17.38
2023-08-29T16:32:31.081Z,17.38
2023-08-29T16:37:22.754Z,17.32
2023-08-29T16:42:14.406Z,17.19
2023-08-29T16:47:06.002Z,17.17
2023-08-29T16:51:58.623Z,17.15
2023-08-29T16:56:50.410Z,17.06
2023-08-29T17:01:42.071Z,16.99
2023-08-29T17:06:34.449Z,16.93
2023-08-29T17:11:26.290Z,16.87
2023-08-29T17:16:18.009Z,16.75
2023-08-29T17:21:09.676Z,16.68
2023-08-29T17:26:01.359Z,16.55
2023-08-29T17:30:52.964Z,16.40
2023-08-29T17:35:44.602Z,16.33
2023-08-29T17:40:36.189Z,16.25
2023-08-29T17:45:27.779Z,16.19
2023-08-29T17:50:19.478Z,16.10
2023-08-29T17:55:11.849Z,16.01
2023-08-29T18:00:03.897Z,15.89
2023-08-29T18:04:55.537Z,15.79
2023-08-29T18:10:18.367Z,15.59
2023-08-29T18:15:11.512Z,15.47
2023-08-29T18:20:03.458Z,15.33
2023-08-29T18:24:55.121Z,15.23
2023-08-29T18:29:48.527Z,15.10
2023-08-29T18:34:40.296Z,14.99
2023-08-29T18:39:31.875Z,14.86
2023-08-29T18:44:23.497Z,14.76
2023-08-29T18:49:15.121Z,14.66
2023-08-29T18:54:06.754Z,14.55
2023-08-29T18:58:58.306Z,14.45
2023-08-29T19:03:49.938Z,14.36
2023-08-29T19:08:41.926Z,14.24
2023-08-29T19:13:36.737Z,14.13
2023-08-29T19:18:28.427Z,13.96
2023-08-29T19:23:22.826Z,13.82
2023-08-29T19:28:14.444Z,13.71
2023-08-29T19:33:06.450Z,13.59
2023-08-29T19:37:58.459Z,13.54
2023-08-29T19:42:50.118Z,13.46
2023-08-29T19:47:42.869Z,13.38
2023-08-29T19:52:35.339Z,13.35
2023-08-29T19:57:27.072Z,13.28
2023-08-29T20:02:18.909Z,13.20
2023-08-29T20:07:10.482Z,13.15
2023-08-29T20:12:02.430Z,13.11
2023-08-29T20:16:54.068Z,13.05
2023-08-29T20:21:45.874Z,12.99
2023-08-29T20:26:37.452Z,12.93
2023-08-29T20:31:29.150Z,12.86
2023-08-29T20:36:20.784Z,12.80
2023-08-29T20:41:12.386Z,12.77
2023-08-29T20:46:04.013Z,12.69
2023-08-29T20:51:01.857Z,12.64
2023-08-29T20:55:53.503Z,12.60
2023-08-29T21:00:45.149Z,12.53
2023-08-29T21:05:36.718Z,12.44
2023-08-29T21:10:29.174Z,12.35
2023-08-29T21:15:20.789Z,12.28
2023-08-29T21:20:12.545Z,12.22
2023-08-29T21:25:04.412Z,12.16
2023-08-29T21:29:56.067Z,12.14
2023-08-29T21:34:47.728Z,12.11
2023-08-29T21:39:39.738Z,12.08
2023-08-29T21:44:31.329Z,12.07
2023-08-29T21:49:23.120Z,12.07
2023-08-29T21:54:14.734Z,12.07
2023-08-29T21:59:06.317Z,12.07
2023-08-29T22:03:57.942Z,12.03
2023-08-29T22:08:49.540Z,11.95
2023-08-29T22:13:41.212Z,11.92
2023-08-29T22:18:32.999Z,11.89
2023-08-29T22:23:24.654Z,11.81
2023-08-29T22:28:16.850Z,11.75
2023-08-29T22:33:09.378Z,11.70
2023-08-29T22:38:01.093Z,11.63
2023-08-29T22:42:53.784Z,11.56
2023-08-29T22:47:45.409Z,11.49
2023-08-29T22:52:39.974Z,11.38
2023-08-29T22:57:31.637Z,11.37
2023-08-29T23:02:23.742Z,11.33
2023-08-29T23:07:15.357Z,11.26
2023-08-29T23:12:07.258Z,11.21
2023-08-29T23:16:59.042Z,11.16
2023-08-29T23:21:51.510Z,11.11
2023-08-29T23:26:43.363Z,11.09
2023-08-29T23:31:36.338Z,11.11
2023-08-29T23:36:29.275Z,11.21
2023-08-29T23:41:20.983Z,11.21
2023-08-29T23:46:14.109Z,11.23
2023-08-29T23:51:05.785Z,11.28
2023-08-29T23:55:57.381Z,11.33
